sensor_id;sensor_type;location;lat;lon;timestamp;pressure;altitude;pressure_sealevel;temperature;humidity
5413;BME280;2729;50.056;8.678;2022-09-20T00:01:08;100769.56;;;13.31;100.00
5413;BME280;2729;50.056;8.678;2022-09-20T00:03:35;100764.59;;;13.22;100.00
5413;BME280;2729;50.056;8.678;2022-09-20T00:06:02;100774.41;;;13.14;100.00
5413;BME280;2729;50.056;8.678;2022-09-20T00:08:29;100771.72;;;13.17;100.00
5413;BME280;2729;50.056;8.678;2022-09-20T00:11:00;100774.25;;;13.20;100.00
5413;BME280;2729;50.056;8.678;2022-09-20T00:13:27;100779.69;;;13.12;100.00
5413;BME280;2729;50.056;8.678;2022-09-20T00:15:53;100784.09;;;13.10;100.00
5413;BME280;2729;50.056;8.678;2022-09-20T00:18:19;100783.50;;;13.01;100.00
5413;BME280;2729;50.056;8.678;2022-09-20T00:20:46;100776.41;;;13.04;100.00
5413;BME280;2729;50.056;8.678;2022-09-20T00:23:13;100781.16;;;12.88;100.00
5413;BME280;2729;50.056;8.678;2022-09-20T00:25:39;100785.63;;;12.85;100.00
5413;BME280;2729;50.056;8.678;2022-09-20T00:28:06;100787.09;;;12.95;100.00
5413;BME280;2729;50.056;8.678;2022-09-20T00:30:32;100787.38;;;12.84;100.00
5413;BME280;2729;50.056;8.678;2022-09-20T00:32:59;100783.09;;;12.82;100.00
5413;BME280;2729;50.056;8.678;2022-09-20T00:35:25;100777.03;;;12.80;100.00
5413;BME280;2729;50.056;8.678;2022-09-20T00:37:51;100784.06;;;12.78;100.00
5413;BME280;2729;50.056;8.678;2022-09-20T00:40:22;100783.34;;;12.71;100.00
5413;BME280;2729;50.056;8.678;2022-09-20T00:42:49;100779.22;;;12.63;100.00
5413;BME280;2729;50.056;8.678;2022-09-20T00:45:25;100778.88;;;12.41;100.00
5413;BME280;2729;50.056;8.678;2022-09-20T00:47:54;100788.09;;;12.57;100.00
5413;BME280;2729;50.056;8.678;2022-09-20T00:50:47;100783.22;;;12.42;100.00
5413;BME280;2729;50.056;8.678;2022-09-20T00:53:19;100777.16;;;12.40;100.00
5413;BME280;2729;50.056;8.678;2022-09-20T00:55:50;100781.47;;;12.42;100.00
5413;BME280;2729;50.056;8.678;2022-09-20T00:58:18;100779.19;;;12.29;100.00
5413;BME280;2729;50.056;8.678;2022-09-20T01:00:45;100778.09;;;12.37;100.00
5413;BME280;2729;50.056;8.678;2022-09-20T01:03:14;100781.03;;;12.23;100.00
5413;BME280;2729;50.056;8.678;2022-09-20T01:05:43;100780.22;;;12.21;100.00
5413;BME280;2729;50.056;8.678;2022-09-20T01:08:10;100787.28;;;12.18;100.00
5413;BME280;2729;50.056;8.678;2022-09-20T01:10:37;100786.31;;;12.22;100.00
5413;BME280;2729;50.056;8.678;2022-09-20T01:13:03;100783.13;;;12.09;100.00
5413;BME280;2729;50.056;8.678;2022-09-20T01:15:32;100786.06;;;11.96;100.00
5413;BME280;2729;50.056;8.678;2022-09-20T01:17:59;100781.47;;;12.05;100.00
5413;BME280;2729;50.056;8.678;2022-09-20T01:20:29;100786.88;;;11.98;100.00
5413;BME280;2729;50.056;8.678;2022-09-20T01:23:12;100792.78;;;12.06;100.00
5413;BME280;2729;50.056;8.678;2022-09-20T01:28:15;100788.78;;;11.91;100.00
5413;BME280;2729;50.056;8.678;2022-09-20T01:30:48;100789.09;;;11.74;100.00
5413;BME280;2729;50.056;8.678;2022-09-20T01:33:38;100792.47;;;11.81;100.00
5413;BME280;2729;50.056;8.678;2022-09-20T01:36:08;100787.31;;;11.78;100.00
5413;BME280;2729;50.056;8.678;2022-09-20T01:38:47;100790.97;;;11.69;100.00
5413;BME280;2729;50.056;8.678;2022-09-20T01:41:23;100783.03;;;11.72;100.00
5413;BME280;2729;50.056;8.678;2022-09-20T01:43:55;100785.22;;;11.52;100.00
5413;BME280;2729;50.056;8.678;2022-09-20T01:46:32;100785.78;;;11.66;100.00
5413;BME280;2729;50.056;8.678;2022-09-20T01:49:24;100785.09;;;11.58;100.00
5413;BME280;2729;50.056;8.678;2022-09-20T01:52:11;100783.03;;;11.72;100.00
5413;BME280;2729;50.056;8.678;2022-09-20T01:58:20;100784.25;;;11.56;100.00
5413;BME280;2729;50.056;8.678;2022-09-20T02:03:50;100774.38;;;11.70;100.00
5413;BME280;2729;50.056;8.678;2022-09-20T02:09:32;100781.53;;;11.62;100.00
5413;BME280;2729;50.056;8.678;2022-09-20T02:14:54;100778.03;;;11.62;100.00
5413;BME280;2729;50.056;8.678;2022-09-20T02:17:33;100782.50;;;11.56;100.00
5413;BME280;2729;50.056;8.678;2022-09-20T02:20:12;100782.47;;;11.58;100.00
5413;BME280;2729;50.056;8.678;2022-09-20T02:25:28;100786.63;;;11.68;100.00
5413;BME280;2729;50.056;8.678;2022-09-20T02:28:11;100782.38;;;11.63;100.00
5413;BME280;2729;50.056;8.678;2022-09-20T02:33:43;100778.28;;;11.51;100.00
5413;BME280;2729;50.056;8.678;2022-09-20T02:36:44;100779.22;;;11.47;100.00
5413;BME280;2729;50.056;8.678;2022-09-20T02:39:20;100785.41;;;11.43;100.00
5413;BME280;2729;50.056;8.678;2022-09-20T02:42:08;100781.91;;;11.44;100.00
5413;BME280;2729;50.056;8.678;2022-09-20T02:44:49;100780.19;;;11.43;100.00
5413;BME280;2729;50.056;8.678;2022-09-20T02:47:32;100784.78;;;11.30;100.00
5413;BME280;2729;50.056;8.678;2022-09-20T02:53:53;100790.94;;;11.27;100.00
5413;BME280;2729;50.056;8.678;2022-09-20T02:59:03;100798.38;;;11.03;100.00
5413;BME280;2729;50.056;8.678;2022-09-20T03:01:47;100798.63;;;10.89;100.00
5413;BME280;2729;50.056;8.678;2022-09-20T03:04:33;100802.78;;;10.99;100.00
5413;BME280;2729;50.056;8.678;2022-09-20T03:07:10;100800.78;;;11.13;100.00
5413;BME280;2729;50.056;8.678;2022-09-20T03:09:55;100798.53;;;10.93;100.00
5413;BME280;2729;50.056;8.678;2022-09-20T03:15:44;100801.97;;;10.97;100.00
5413;BME280;2729;50.056;8.678;2022-09-20T03:18:17;100799.38;;;10.95;100.00
5413;BME280;2729;50.056;8.678;2022-09-20T03:24:04;100797.53;;;11.01;100.00
5413;BME280;2729;50.056;8.678;2022-09-20T03:26:51;100793.19;;;11.01;100.00
5413;BME280;2729;50.056;8.678;2022-09-20T03:30:01;100783.41;;;11.11;100.00
5413;BME280;2729;50.056;8.678;2022-09-20T03:33:00;100793.44;;;10.86;100.00
5413;BME280;2729;50.056;8.678;2022-09-20T03:35:48;100799.44;;;10.92;100.00
5413;BME280;2729;50.056;8.678;2022-09-20T03:41:39;100805.59;;;10.88;100.00
5413;BME280;2729;50.056;8.678;2022-09-20T03:47:47;100801.22;;;10.89;100.00
5413;BME280;2729;50.056;8.678;2022-09-20T03:50:04;100809.97;;;10.86;100.00
5413;BME280;2729;50.056;8.678;2022-09-20T03:53:00;100813.28;;;10.96;100.00
5413;BME280;2729;50.056;8.678;2022-09-20T03:55:51;100813.34;;;10.93;100.00
5413;BME280;2729;50.056;8.678;2022-09-20T04:01:40;100811.66;;;10.90;100.00
5413;BME280;2729;50.056;8.678;2022-09-20T04:04:30;100812.50;;;10.91;100.00
5413;BME280;2729;50.056;8.678;2022-09-20T04:10:02;100814.41;;;10.83;100.00
5413;BME280;2729;50.056;8.678;2022-09-20T04:13:13;100813.72;;;10.72;100.00
5413;BME280;2729;50.056;8.678;2022-09-20T04:15:56;100806.94;;;10.61;100.00
5413;BME280;2729;50.056;8.678;2022-09-20T04:18:58;100807.78;;;10.62;100.00
5413;BME280;2729;50.056;8.678;2022-09-20T04:21:31;100813.06;;;10.59;100.00
5413;BME280;2729;50.056;8.678;2022-09-20T04:24:18;100810.28;;;10.68;100.00
5413;BME280;2729;50.056;8.678;2022-09-20T04:26:51;100814.75;;;10.61;100.00
5413;BME280;2729;50.056;8.678;2022-09-20T04:29:23;100815.66;;;10.60;100.00
5413;BME280;2729;50.056;8.678;2022-09-20T04:31:58;100817.53;;;10.52;100.00
5413;BME280;2729;50.056;8.678;2022-09-20T04:34:34;100812.25;;;10.55;100.00
5413;BME280;2729;50.056;8.678;2022-09-20T04:37:27;100815.84;;;10.48;100.00
5413;BME280;2729;50.056;8.678;2022-09-20T04:40:46;100821.09;;;10.45;100.00
5413;BME280;2729;50.056;8.678;2022-09-20T04:43:41;100815.09;;;10.39;100.00
5413;BME280;2729;50.056;8.678;2022-09-20T04:52:11;100816.78;;;10.44;100.00
5413;BME280;2729;50.056;8.678;2022-09-20T05:01:13;100832.94;;;10.68;100.00
5413;BME280;2729;50.056;8.678;2022-09-20T05:06:41;100836.41;;;10.68;100.00
5413;BME280;2729;50.056;8.678;2022-09-20T05:15:04;100848.56;;;10.69;100.00
5413;BME280;2729;50.056;8.678;2022-09-20T05:20:23;100867.41;;;10.88;100.00
5413;BME280;2729;50.056;8.678;2022-09-20T05:25:41;100854.81;;;11.11;100.00
5413;BME280;2729;50.056;8.678;2022-09-20T05:28:12;100856.63;;;11.08;100.00
5413;BME280;2729;50.056;8.678;2022-09-20T05:30:57;100865.13;;;11.19;100.00
5413;BME280;2729;50.056;8.678;2022-09-20T05:33:35;100865.19;;;11.16;100.00
5413;BME280;2729;50.056;8.678;2022-09-20T05:36:14;100861.56;;;11.23;100.00
5413;BME280;2729;50.056;8.678;2022-09-20T05:38:48;100869.28;;;11.31;100.00
5413;BME280;2729;50.056;8.678;2022-09-20T05:41:22;100872.50;;;11.43;100.00
5413;BME280;2729;50.056;8.678;2022-09-20T05:44:23;100872.50;;;11.43;100.00
5413;BME280;2729;50.056;8.678;2022-09-20T05:47:17;100878.72;;;11.38;100.00
5413;BME280;2729;50.056;8.678;2022-09-20T05:49:50;100875.94;;;11.47;100.00
5413;BME280;2729;50.056;8.678;2022-09-20T05:52:25;100879.50;;;11.43;100.00
5413;BME280;2729;50.056;8.678;2022-09-20T05:55:18;100882.00;;;11.49;100.00
5413;BME280;2729;50.056;8.678;2022-09-20T05:58:02;100879.44;;;11.46;100.00
5413;BME280;2729;50.056;8.678;2022-09-20T06:00:44;100886.06;;;11.64;100.00
5413;BME280;2729;50.056;8.678;2022-09-20T06:06:18;100886.47;;;11.88;100.00
5413;BME280;2729;50.056;8.678;2022-09-20T06:11:58;100886.47;;;11.88;100.00
5413;BME280;2729;50.056;8.678;2022-09-20T06:14:36;100885.94;;;12.14;100.00
5413;BME280;2729;50.056;8.678;2022-09-20T06:17:15;100881.47;;;12.19;100.00
5413;BME280;2729;50.056;8.678;2022-09-20T06:22:24;100888.50;;;12.16;100.00
5413;BME280;2729;50.056;8.678;2022-09-20T06:25:02;100889.00;;;12.33;100.00
5413;BME280;2729;50.056;8.678;2022-09-20T06:27:33;100895.22;;;12.28;100.00
5413;BME280;2729;50.056;8.678;2022-09-20T06:30:04;100897.06;;;12.24;100.00
5413;BME280;2729;50.056;8.678;2022-09-20T06:32:31;100896.66;;;12.42;100.00
5413;BME280;2729;50.056;8.678;2022-09-20T06:35:00;100895.31;;;12.63;100.00
5413;BME280;2729;50.056;8.678;2022-09-20T06:37:42;100900.25;;;12.75;100.00
5413;BME280;2729;50.056;8.678;2022-09-20T06:40:47;100900.06;;;12.83;100.00
5413;BME280;2729;50.056;8.678;2022-09-20T06:43:45;100910.34;;;12.91;100.00
5413;BME280;2729;50.056;8.678;2022-09-20T06:46:13;100894.41;;;13.00;100.00
5413;BME280;2729;50.056;8.678;2022-09-20T06:48:40;100902.28;;;13.00;100.00
5413;BME280;2729;50.056;8.678;2022-09-20T06:51:07;100897.94;;;13.00;100.00
5413;BME280;2729;50.056;8.678;2022-09-20T06:53:36;100900.38;;;13.06;100.00
5413;BME280;2729;50.056;8.678;2022-09-20T06:56:11;100909.41;;;12.93;100.00
5413;BME280;2729;50.056;8.678;2022-09-20T06:58:39;100907.97;;;13.18;100.00
5413;BME280;2729;50.056;8.678;2022-09-20T07:01:05;100913.31;;;13.14;100.00
5413;BME280;2729;50.056;8.678;2022-09-20T07:03:31;100903.94;;;13.39;100.00
5413;BME280;2729;50.056;8.678;2022-09-20T07:05:57;100911.84;;;13.38;100.00
5413;BME280;2729;50.056;8.678;2022-09-20T07:08:25;100912.13;;;13.27;100.00
5413;BME280;2729;50.056;8.678;2022-09-20T07:10:51;100912.53;;;13.44;100.00
5413;BME280;2729;50.056;8.678;2022-09-20T07:13:17;100913.19;;;13.52;100.00
5413;BME280;2729;50.056;8.678;2022-09-20T07:15:45;100913.56;;;13.39;100.00
5413;BME280;2729;50.056;8.678;2022-09-20T07:18:11;100908.53;;;13.31;100.00
5413;BME280;2729;50.056;8.678;2022-09-20T07:20:37;100911.22;;;13.61;100.00
5413;BME280;2729;50.056;8.678;2022-09-20T07:23:04;100914.84;;;13.57;100.00
5413;BME280;2729;50.056;8.678;2022-09-20T07:25:30;100913.72;;;13.65;100.00
5413;BME280;2729;50.056;8.678;2022-09-20T07:27:56;100918.13;;;13.65;100.00
5413;BME280;2729;50.056;8.678;2022-09-20T07:30:22;100914.38;;;13.73;100.00
5413;BME280;2729;50.056;8.678;2022-09-20T07:32:48;100917.88;;;14.05;100.00
5413;BME280;2729;50.056;8.678;2022-09-20T07:35:15;100911.22;;;14.23;100.00
5413;BME280;2729;50.056;8.678;2022-09-20T07:37:41;100917.66;;;14.42;100.00
5413;BME280;2729;50.056;8.678;2022-09-20T07:40:08;100914.47;;;14.31;100.00
5413;BME280;2729;50.056;8.678;2022-09-20T07:42:35;100911.44;;;14.15;100.00
5413;BME280;2729;50.056;8.678;2022-09-20T07:45:01;100924.00;;;14.04;100.00
5413;BME280;2729;50.056;8.678;2022-09-20T07:47:28;100910.22;;;14.27;100.00
5413;BME280;2729;50.056;8.678;2022-09-20T07:49:56;100916.50;;;14.21;100.00
5413;BME280;2729;50.056;8.678;2022-09-20T07:52:23;100920.91;;;14.21;100.00
5413;BME280;2729;50.056;8.678;2022-09-20T07:54:49;100918.88;;;14.30;100.00
5413;BME280;2729;50.056;8.678;2022-09-20T07:57:15;100923.84;;;14.39;100.00
5413;BME280;2729;50.056;8.678;2022-09-20T07:59:41;100926.66;;;14.33;100.00
5413;BME280;2729;50.056;8.678;2022-09-20T08:02:13;100920.59;;;14.61;100.00
5413;BME280;2729;50.056;8.678;2022-09-20T08:04:39;100929.94;;;14.69;100.00
5413;BME280;2729;50.056;8.678;2022-09-20T08:07:05;100925.84;;;14.89;100.00
5413;BME280;2729;50.056;8.678;2022-09-20T08:09:31;100931.38;;;14.79;100.00
5413;BME280;2729;50.056;8.678;2022-09-20T08:11:57;100928.91;;;14.75;100.00
5413;BME280;2729;50.056;8.678;2022-09-20T08:14:23;100929.47;;;14.57;100.00
5413;BME280;2729;50.056;8.678;2022-09-20T08:16:49;100932.16;;;14.55;100.00
5413;BME280;2729;50.056;8.678;2022-09-20T08:19:21;100926.31;;;14.73;100.00
5413;BME280;2729;50.056;8.678;2022-09-20T08:21:48;100925.06;;;15.11;100.00
5413;BME280;2729;50.056;8.678;2022-09-20T08:24:15;100930.31;;;14.85;100.00
5413;BME280;2729;50.056;8.678;2022-09-20T08:26:42;100926.22;;;15.29;100.00
5413;BME280;2729;50.056;8.678;2022-09-20T08:29:08;100927.81;;;15.08;100.00
5413;BME280;2729;50.056;8.678;2022-09-20T08:31:37;100933.16;;;15.05;100.00
5413;BME280;2729;50.056;8.678;2022-09-20T08:34:04;100936.03;;;15.24;100.00
5413;BME280;2729;50.056;8.678;2022-09-20T08:36:32;100926.53;;;15.20;100.00
5413;BME280;2729;50.056;8.678;2022-09-20T08:38:59;100932.72;;;15.19;100.00
5413;BME280;2729;50.056;8.678;2022-09-20T08:41:28;100936.03;;;15.51;100.00
5413;BME280;2729;50.056;8.678;2022-09-20T08:43:58;100929.75;;;15.55;100.00
5413;BME280;2729;50.056;8.678;2022-09-20T08:46:28;100934.25;;;15.51;100.00
5413;BME280;2729;50.056;8.678;2022-09-20T08:48:56;100929.66;;;15.31;100.00
5413;BME280;2729;50.056;8.678;2022-09-20T08:51:28;100931.63;;;15.78;100.00
5413;BME280;2729;50.056;8.678;2022-09-20T08:53:55;100946.50;;;15.52;100.00
5413;BME280;2729;50.056;8.678;2022-09-20T08:56:25;100940.22;;;15.56;100.00
5413;BME280;2729;50.056;8.678;2022-09-20T08:58:53;100946.22;;;15.35;100.00
5413;BME280;2729;50.056;8.678;2022-09-20T09:01:23;100938.41;;;15.32;100.00
5413;BME280;2729;50.056;8.678;2022-09-20T09:03:50;100925.91;;;15.38;100.00
5413;BME280;2729;50.056;8.678;2022-09-20T09:06:19;100934.47;;;15.71;100.00
5413;BME280;2729;50.056;8.678;2022-09-20T09:08:46;100939.41;;;15.81;100.00
5413;BME280;2729;50.056;8.678;2022-09-20T09:11:18;100942.91;;;15.55;100.00
5413;BME280;2729;50.056;8.678;2022-09-20T09:14:03;100935.91;;;15.54;97.83
5413;BME280;2729;50.056;8.678;2022-09-20T09:16:31;100926.41;;;15.76;98.16
5413;BME280;2729;50.056;8.678;2022-09-20T09:19:25;100939.47;;;15.79;99.43
5413;BME280;2729;50.056;8.678;2022-09-20T09:21:56;100935.16;;;15.77;100.00
5413;BME280;2729;50.056;8.678;2022-09-20T09:24:23;100929.53;;;15.87;100.00
5413;BME280;2729;50.056;8.678;2022-09-20T09:27:14;100926.56;;;15.96;94.18
5413;BME280;2729;50.056;8.678;2022-09-20T09:29:52;100928.91;;;16.27;99.26
5413;BME280;2729;50.056;8.678;2022-09-20T09:32:25;100927.41;;;16.44;87.96
5413;BME280;2729;50.056;8.678;2022-09-20T09:34:54;100920.34;;;16.44;86.17
5413;BME280;2729;50.056;8.678;2022-09-20T09:37:28;100924.84;;;16.19;90.33
5413;BME280;2729;50.056;8.678;2022-09-20T09:40:14;100921.00;;;16.27;88.30
5413;BME280;2729;50.056;8.678;2022-09-20T09:42:55;100915.03;;;16.46;85.25
5413;BME280;2729;50.056;8.678;2022-09-20T09:45:35;100915.72;;;16.27;84.47
5413;BME280;2729;50.056;8.678;2022-09-20T09:48:29;100914.75;;;16.75;88.27
5413;BME280;2729;50.056;8.678;2022-09-20T09:51:13;100913.81;;;16.54;84.68
5413;BME280;2729;50.056;8.678;2022-09-20T09:53:43;100915.13;;;16.66;88.19
5413;BME280;2729;50.056;8.678;2022-09-20T09:56:17;100911.88;;;16.36;83.01
5413;BME280;2729;50.056;8.678;2022-09-20T09:58:50;100912.56;;;16.41;81.38
5413;BME280;2729;50.056;8.678;2022-09-20T10:01:46;100911.97;;;16.56;86.10
5413;BME280;2729;50.056;8.678;2022-09-20T10:04:32;100915.81;;;16.48;96.67
5413;BME280;2729;50.056;8.678;2022-09-20T10:07:08;100911.50;;;16.23;95.19
5413;BME280;2729;50.056;8.678;2022-09-20T10:10:08;100907.00;;;16.49;89.07
5413;BME280;2729;50.056;8.678;2022-09-20T10:13:03;100902.63;;;16.71;86.01
5413;BME280;2729;50.056;8.678;2022-09-20T10:15:41;100893.34;;;17.04;82.34
5413;BME280;2729;50.056;8.678;2022-09-20T10:24:15;100895.88;;;17.28;71.78
5413;BME280;2729;50.056;8.678;2022-09-20T10:26:59;100888.88;;;17.27;70.45
5413;BME280;2729;50.056;8.678;2022-09-20T10:29:45;100891.41;;;16.88;71.53
5413;BME280;2729;50.056;8.678;2022-09-20T10:32:24;100891.97;;;16.74;75.62
5413;BME280;2729;50.056;8.678;2022-09-20T10:35:31;100890.38;;;16.70;76.92
5413;BME280;2729;50.056;8.678;2022-09-20T10:38:22;100888.41;;;16.75;81.54
5413;BME280;2729;50.056;8.678;2022-09-20T10:41:03;100887.06;;;16.65;73.92
5413;BME280;2729;50.056;8.678;2022-09-20T10:47:02;100880.28;;;17.42;70.33
5413;BME280;2729;50.056;8.678;2022-09-20T10:49:40;100874.06;;;17.84;67.36
5413;BME280;2729;50.056;8.678;2022-09-20T10:52:19;100872.97;;;18.27;72.67
5413;BME280;2729;50.056;8.678;2022-09-20T11:06:18;100880.41;;;17.59;65.55
5413;BME280;2729;50.056;8.678;2022-09-20T11:08:49;100878.56;;;17.41;61.96
5413;BME280;2729;50.056;8.678;2022-09-20T11:11:28;100878.56;;;17.41;64.18
5413;BME280;2729;50.056;8.678;2022-09-20T11:14:05;100882.59;;;17.70;67.20
5413;BME280;2729;50.056;8.678;2022-09-20T11:16:46;100883.25;;;17.55;70.65
5413;BME280;2729;50.056;8.678;2022-09-20T11:19:23;100886.34;;;17.85;72.17
5413;BME280;2729;50.056;8.678;2022-09-20T11:21:58;100877.25;;;17.72;60.41
5413;BME280;2729;50.056;8.678;2022-09-20T11:24:30;100882.13;;;17.81;60.78
5413;BME280;2729;50.056;8.678;2022-09-20T11:29:49;100881.41;;;17.57;65.16
5413;BME280;2729;50.056;8.678;2022-09-20T11:32:52;100890.06;;;17.40;61.34
5413;BME280;2729;50.056;8.678;2022-09-20T11:35:29;100886.47;;;17.61;63.59
5413;BME280;2729;50.056;8.678;2022-09-20T11:38:25;100893.88;;;17.53;62.30
5413;BME280;2729;50.056;8.678;2022-09-20T11:41:00;100901.34;;;17.64;65.30
5413;BME280;2729;50.056;8.678;2022-09-20T11:43:27;100902.84;;;17.49;68.27
5413;BME280;2729;50.056;8.678;2022-09-20T11:45:58;100896.00;;;17.25;70.70
5413;BME280;2729;50.056;8.678;2022-09-20T11:48:33;100900.13;;;17.10;69.09
5413;BME280;2729;50.056;8.678;2022-09-20T11:51:27;100905.56;;;17.27;73.33
5413;BME280;2729;50.056;8.678;2022-09-20T11:56:51;100892.81;;;17.17;76.52
5413;BME280;2729;50.056;8.678;2022-09-20T11:59:36;100887.72;;;17.93;77.74
5413;BME280;2729;50.056;8.678;2022-09-20T12:02:14;100884.38;;;18.65;71.76
5413;BME280;2729;50.056;8.678;2022-09-20T12:04:44;100880.25;;;18.95;67.94
5413;BME280;2729;50.056;8.678;2022-09-20T12:07:25;100883.34;;;19.04;67.35
5413;BME280;2729;50.056;8.678;2022-09-20T12:10:00;100885.47;;;18.42;69.75
5413;BME280;2729;50.056;8.678;2022-09-20T12:12:39;100884.16;;;17.94;74.50
5413;BME280;2729;50.056;8.678;2022-09-20T12:26:06;100895.53;;;17.35;79.28
5413;BME280;2729;50.056;8.678;2022-09-20T12:28:34;100901.81;;;17.33;76.97
5413;BME280;2729;50.056;8.678;2022-09-20T12:36:40;100897.19;;;17.18;79.17
5413;BME280;2729;50.056;8.678;2022-09-20T12:41:52;100898.69;;;17.03;76.72
5413;BME280;2729;50.056;8.678;2022-09-20T12:44:37;100894.94;;;17.09;75.51
5413;BME280;2729;50.056;8.678;2022-09-20T12:52:37;100896.31;;;17.17;78.99
5413;BME280;2729;50.056;8.678;2022-09-20T13:03:42;100925.66;;;16.88;88.74
5413;BME280;2729;50.056;8.678;2022-09-20T13:11:32;100921.84;;;16.51;100.00
5413;BME280;2729;50.056;8.678;2022-09-20T13:14:15;100920.78;;;16.10;100.00
5413;BME280;2729;50.056;8.678;2022-09-20T13:16:59;100911.44;;;15.78;100.00
5413;BME280;2729;50.056;8.678;2022-09-20T13:19:32;100904.03;;;15.64;100.00
5413;BME280;2729;50.056;8.678;2022-09-20T13:22:24;100905.41;;;15.74;100.00
5413;BME280;2729;50.056;8.678;2022-09-20T13:25:04;100906.09;;;15.80;100.00
5413;BME280;2729;50.056;8.678;2022-09-20T13:27:34;100904.38;;;15.79;100.00
5413;BME280;2729;50.056;8.678;2022-09-20T13:30:24;100909.31;;;15.88;100.00
5413;BME280;2729;50.056;8.678;2022-09-20T13:32:50;100915.34;;;15.91;100.00
5413;BME280;2729;50.056;8.678;2022-09-20T13:35:23;100906.53;;;15.92;100.00
5413;BME280;2729;50.056;8.678;2022-09-20T13:38:04;100905.03;;;15.85;100.00
5413;BME280;2729;50.056;8.678;2022-09-20T13:43:05;100904.38;;;16.49;100.00
5413;BME280;2729;50.056;8.678;2022-09-20T13:45:32;100898.66;;;16.37;100.00
5413;BME280;2729;50.056;8.678;2022-09-20T13:47:59;100903.94;;;16.59;100.00
5413;BME280;2729;50.056;8.678;2022-09-20T13:50:28;100903.19;;;16.56;100.00
5413;BME280;2729;50.056;8.678;2022-09-20T13:53:00;100907.78;;;16.74;100.00
5413;BME280;2729;50.056;8.678;2022-09-20T13:55:37;100903.19;;;16.79;100.00
5413;BME280;2729;50.056;8.678;2022-09-20T13:58:20;100893.22;;;17.08;100.00
5413;BME280;2729;50.056;8.678;2022-09-20T14:00:50;100885.28;;;17.08;100.00
5413;BME280;2729;50.056;8.678;2022-09-20T14:03:18;100891.44;;;17.08;100.00
5413;BME280;2729;50.056;8.678;2022-09-20T14:05:47;100886.91;;;17.32;100.00
5413;BME280;2729;50.056;8.678;2022-09-20T14:08:35;100883.13;;;17.58;99.30
5413;BME280;2729;50.056;8.678;2022-09-20T14:13:34;100887.56;;;17.96;93.49
5413;BME280;2729;50.056;8.678;2022-09-20T14:16:02;100886.28;;;18.05;94.13
5413;BME280;2729;50.056;8.678;2022-09-20T14:18:28;100890.84;;;17.62;86.76
5413;BME280;2729;50.056;8.678;2022-09-20T14:20:55;100876.19;;;17.55;80.45
5413;BME280;2729;50.056;8.678;2022-09-20T14:23:24;100880.69;;;17.53;81.71
5413;BME280;2729;50.056;8.678;2022-09-20T14:26:20;100872.91;;;17.50;79.41
5413;BME280;2729;50.056;8.678;2022-09-20T14:28:47;100873.84;;;17.70;86.23
5413;BME280;2729;50.056;8.678;2022-09-20T14:31:15;100861.31;;;18.12;87.82
5413;BME280;2729;50.056;8.678;2022-09-20T14:33:48;100862.91;;;18.35;90.77
5413;BME280;2729;50.056;8.678;2022-09-20T14:36:21;100859.66;;;18.47;89.36
5413;BME280;2729;50.056;8.678;2022-09-20T14:38:49;100863.56;;;18.57;84.42
5413;BME280;2729;50.056;8.678;2022-09-20T14:41:33;100869.63;;;18.23;85.78
5413;BME280;2729;50.056;8.678;2022-09-20T14:44:02;100863.56;;;17.62;90.17
5413;BME280;2729;50.056;8.678;2022-09-20T14:46:37;100868.56;;;17.88;92.99
5413;BME280;2729;50.056;8.678;2022-09-20T14:49:28;100861.41;;;17.72;92.38
5413;BME280;2729;50.056;8.678;2022-09-20T14:55:15;100859.22;;;17.81;92.66
5413;BME280;2729;50.056;8.678;2022-09-20T14:57:41;100862.19;;;17.53;93.86
5413;BME280;2729;50.056;8.678;2022-09-20T15:00:15;100867.47;;;17.53;89.75
5413;BME280;2729;50.056;8.678;2022-09-20T15:02:43;100865.59;;;17.36;96.78
5413;BME280;2729;50.056;8.678;2022-09-20T15:05:25;100858.06;;;17.48;95.06
5413;BME280;2729;50.056;8.678;2022-09-20T15:07:53;100865.50;;;17.58;89.02
5413;BME280;2729;50.056;8.678;2022-09-20T15:10:20;100865.19;;;17.66;88.32
5413;BME280;2729;50.056;8.678;2022-09-20T15:12:47;100870.78;;;17.18;86.38
5413;BME280;2729;50.056;8.678;2022-09-20T15:15:14;100863.66;;;17.60;86.53
5413;BME280;2729;50.056;8.678;2022-09-20T15:17:42;100863.78;;;17.57;87.94
5413;BME280;2729;50.056;8.678;2022-09-20T15:22:40;100871.97;;;17.72;83.52
5413;BME280;2729;50.056;8.678;2022-09-20T15:25:11;100867.63;;;17.50;82.07
5413;BME280;2729;50.056;8.678;2022-09-20T15:27:37;100872.97;;;17.49;83.07
5413;BME280;2729;50.056;8.678;2022-09-20T15:30:04;100864.31;;;17.45;85.04
5413;BME280;2729;50.056;8.678;2022-09-20T15:32:30;100865.19;;;17.46;83.52
5413;BME280;2729;50.056;8.678;2022-09-20T15:34:56;100865.38;;;17.21;86.11
5413;BME280;2729;50.056;8.678;2022-09-20T15:37:22;100866.25;;;17.21;84.90
5413;BME280;2729;50.056;8.678;2022-09-20T15:39:48;100867.69;;;17.28;87.83
5413;BME280;2729;50.056;8.678;2022-09-20T15:42:14;100871.78;;;17.15;85.29
5413;BME280;2729;50.056;8.678;2022-09-20T15:44:40;100868.88;;;17.21;85.04
5413;BME280;2729;50.056;8.678;2022-09-20T15:47:06;100876.28;;;17.33;84.21
5413;BME280;2729;50.056;8.678;2022-09-20T15:49:32;100871.06;;;17.32;81.79
5413;BME280;2729;50.056;8.678;2022-09-20T15:51:58;100868.28;;;17.55;83.62
5413;BME280;2729;50.056;8.678;2022-09-20T15:54:24;100873.16;;;17.44;78.50
5413;BME280;2729;50.056;8.678;2022-09-20T15:56:51;100872.34;;;17.62;83.24
5413;BME280;2729;50.056;8.678;2022-09-20T15:59:18;100877.47;;;17.47;82.22
5413;BME280;2729;50.056;8.678;2022-09-20T16:01:47;100869.41;;;17.50;79.98
5413;BME280;2729;50.056;8.678;2022-09-20T16:04:15;100874.34;;;17.37;84.11
5413;BME280;2729;50.056;8.678;2022-09-20T16:06:44;100870.00;;;17.36;81.46
5413;BME280;2729;50.056;8.678;2022-09-20T16:09:11;100868.69;;;17.26;81.99
5413;BME280;2729;50.056;8.678;2022-09-20T16:11:37;100881.53;;;17.33;84.38
5413;BME280;2729;50.056;8.678;2022-09-20T16:14:04;100877.63;;;17.01;85.62
5413;BME280;2729;50.056;8.678;2022-09-20T16:16:32;100876.41;;;17.10;88.01
5413;BME280;2729;50.056;8.678;2022-09-20T16:18:58;100882.19;;;17.18;93.77
5413;BME280;2729;50.056;8.678;2022-09-20T16:21:44;100891.09;;;16.95;89.18